Time;durP1;ratioP1;P1;durP2;ratioP2;P2;SDS_P1;SDS_P2;PMS_P1;PMS_P2;Temp;Humidity;BMP_temperature;BMP_pressure;BME280_temperature;BME280_humidity;BME280_pressure;Samples;Min_cycle;Max_cycle;Signal;HPM_P1;HPM_P2
2023/05/09 00:01:11;;;;;;;15.75;11.00;;;18.40;88.50;;;;;;6308168;22;20030;-78
2023/05/09 00:03:37;;;;;;;14.57;11.85;;;18.40;89.00;;;;;;6335753;22;20039;-80
2023/05/09 00:06:03;;;;;;;18.15;12.20;;;18.30;88.80;;;;;;6339209;22;20117;-79
2023/05/09 00:08:29;;;;;;;13.63;11.55;;;18.30;89.10;;;;;;6339675;22;20003;-78
2023/05/09 00:10:54;;;;;;;14.75;11.68;;;18.20;89.20;;;;;;6339096;22;20277;-78
2023/05/09 00:13:20;;;;;;;14.20;11.15;;;18.20;89.40;;;;;;6339318;22;20006;-78
2023/05/09 00:15:46;;;;;;;15.55;11.65;;;18.20;89.60;;;;;;6339030;22;20566;-79
2023/05/09 00:18:13;;;;;;;15.93;11.77;;;18.20;89.80;;;;;;6339197;22;20062;-78
2023/05/09 00:20:39;;;;;;;16.85;13.13;;;18.20;90.00;;;;;;6338938;22;20011;-78
2023/05/09 00:23:06;;;;;;;16.60;12.40;;;18.20;89.70;;;;;;6339167;22;20002;-79
2023/05/09 00:25:31;;;;;;;13.65;11.65;;;18.20;89.90;;;;;;6339432;22;20018;-79
2023/05/09 00:27:57;;;;;;;16.00;12.13;;;18.20;89.90;;;;;;6339033;22;20003;-78
2023/05/09 00:30:23;;;;;;;18.15;12.27;;;18.20;89.80;;;;;;6338416;22;19994;-78
2023/05/09 00:32:49;;;;;;;14.18;12.13;;;18.20;89.70;;;;;;6339952;22;20002;-79
2023/05/09 00:35:14;;;;;;;16.30;12.52;;;18.20;89.50;;;;;;6338347;22;20007;-79
2023/05/09 00:37:40;;;;;;;16.15;12.00;;;18.20;90.10;;;;;;6339108;22;20274;-77
2023/05/09 00:40:08;;;;;;;18.52;13.18;;;18.20;89.70;;;;;;6339176;22;20015;-78
2023/05/09 00:42:34;;;;;;;15.35;12.13;;;18.10;89.60;;;;;;6338989;22;19991;-79
2023/05/09 00:45:00;;;;;;;18.27;12.55;;;18.10;89.40;;;;;;6338779;22;20003;-79
2023/05/09 00:47:29;;;;;;;15.48;12.50;;;18.10;89.60;;;;;;6339160;22;19998;-79
2023/05/09 00:49:56;;;;;;;15.93;12.10;;;18.10;89.60;;;;;;6339162;22;20009;-79
2023/05/09 00:52:24;;;;;;;14.68;12.48;;;18.10;89.60;;;;;;6338924;22;19994;-79
2023/05/09 00:54:54;;;;;;;16.95;13.23;;;18.10;89.60;;;;;;6338681;22;20001;-78
2023/05/09 00:57:21;;;;;;;16.60;13.35;;;18.20;89.80;;;;;;6338901;22;20528;-79
2023/05/09 00:59:47;;;;;;;17.95;13.10;;;18.20;89.50;;;;;;6337972;22;20021;-78
2023/05/09 01:02:14;;;;;;;15.50;13.35;;;18.10;89.40;;;;;;6338670;22;20086;-78
2023/05/09 01:04:40;;;;;;;20.52;13.85;;;18.10;89.30;;;;;;6338818;22;20440;-79
2023/05/09 01:07:13;;;;;;;14.93;13.20;;;18.00;90.10;;;;;;6337051;22;20030;-79
2023/05/09 01:09:45;;;;;;;15.07;12.93;;;18.00;89.60;;;;;;6338699;22;20022;-78
2023/05/09 01:12:21;;;;;;;16.77;13.73;;;18.00;90.10;;;;;;6338846;22;20003;-78
2023/05/09 01:14:55;;;;;;;16.10;13.98;;;18.10;89.70;;;;;;6338879;22;20060;-79
2023/05/09 01:17:41;;;;;;;20.17;14.70;;;18.00;90.10;;;;;;6337211;22;20010;-79
2023/05/09 01:20:14;;;;;;;17.15;13.82;;;17.90;90.10;;;;;;6338797;22;20011;-79
2023/05/09 01:22:45;;;;;;;18.80;13.32;;;17.90;90.20;;;;;;6338907;22;20320;-79
2023/05/09 01:25:35;;;;;;;15.38;12.98;;;17.80;90.00;;;;;;6338694;22;20033;-79
2023/05/09 01:28:29;;;;;;;15.35;12.80;;;17.90;90.10;;;;;;6338964;22;20006;-79
2023/05/09 01:30:56;;;;;;;15.75;13.30;;;17.90;90.40;;;;;;6340157;22;20007;-79
2023/05/09 01:33:25;;;;;;;16.67;12.98;;;17.90;90.10;;;;;;6341043;22;20538;-78
2023/05/09 01:35:57;;;;;;;19.63;13.45;;;17.90;90.10;;;;;;6338792;22;20491;-79
2023/05/09 01:38:24;;;;;;;17.95;14.52;;;17.90;90.00;;;;;;6338759;22;20044;-79
2023/05/09 01:40:53;;;;;;;20.63;14.52;;;18.00;90.10;;;;;;6338374;22;20021;-78
2023/05/09 01:43:21;;;;;;;19.25;14.48;;;18.00;90.10;;;;;;6338551;22;20010;-79
2023/05/09 01:45:49;;;;;;;17.45;14.13;;;18.00;90.00;;;;;;6338624;22;20006;-79
2023/05/09 01:48:15;;;;;;;21.77;15.45;;;18.00;90.10;;;;;;6338251;22;20010;-78
2023/05/09 01:50:43;;;;;;;23.48;14.82;;;18.00;90.10;;;;;;6338503;22;20048;-79
2023/05/09 01:53:10;;;;;;;20.70;14.52;;;17.90;90.10;;;;;;6338657;22;20482;-79
2023/05/09 01:55:38;;;;;;;17.95;14.68;;;17.90;90.20;;;;;;6338042;22;19998;-78
2023/05/09 01:58:05;;;;;;;19.15;14.75;;;17.90;90.20;;;;;;6338519;22;19998;-78
2023/05/09 02:00:33;;;;;;;19.70;16.00;;;17.90;90.30;;;;;;6338002;22;20007;-78
2023/05/09 02:02:59;;;;;;;19.80;15.38;;;17.90;90.20;;;;;;6338633;22;20463;-78
2023/05/09 02:05:28;;;;;;;18.20;15.27;;;17.90;90.30;;;;;;6337910;22;20080;-78
2023/05/09 02:07:57;;;;;;;20.20;14.93;;;17.90;90.30;;;;;;6338116;22;19995;-78
2023/05/09 02:10:26;;;;;;;19.60;15.25;;;18.00;90.30;;;;;;6338141;22;19999;-77
2023/05/09 02:12:53;;;;;;;19.42;14.77;;;18.00;90.20;;;;;;6336438;22;20005;-78
2023/05/09 02:15:18;;;;;;;19.40;16.27;;;18.00;90.20;;;;;;6338363;22;20041;-79
2023/05/09 02:17:45;;;;;;;16.90;14.25;;;18.00;90.20;;;;;;6338496;22;19999;-79
2023/05/09 02:20:11;;;;;;;19.65;16.30;;;18.00;90.30;;;;;;6338281;22;20011;-79
2023/05/09 02:22:38;;;;;;;20.48;15.68;;;18.00;90.30;;;;;;6337905;22;20332;-79
2023/05/09 02:25:06;;;;;;;23.50;15.70;;;18.00;90.30;;;;;;6338018;22;20493;-80
2023/05/09 02:27:33;;;;;;;19.02;15.80;;;18.00;90.30;;;;;;6340138;22;20458;-78
2023/05/09 02:30:03;;;;;;;20.38;15.90;;;18.00;90.30;;;;;;6351375;22;20052;-78
2023/05/09 02:32:31;;;;;;;19.58;15.85;;;18.10;90.50;;;;;;6361288;22;19999;-80
2023/05/09 02:34:59;;;;;;;21.55;16.10;;;18.00;90.40;;;;;;6341651;22;20003;-79
2023/05/09 02:37:26;;;;;;;20.77;16.13;;;18.00;90.50;;;;;;6338463;22;20003;-78
2023/05/09 02:39:52;;;;;;;19.88;15.32;;;18.00;90.60;;;;;;6335595;22;20015;-78
2023/05/09 02:42:24;;;;;;;18.38;15.95;;;18.00;90.60;;;;;;6337801;22;20052;-78
2023/05/09 02:44:50;;;;;;;23.35;17.48;;;18.00;90.60;;;;;;6336338;22;20014;-78
2023/05/09 02:47:16;;;;;;;22.00;17.42;;;17.90;90.80;;;;;;6336244;22;20013;-79
2023/05/09 02:49:41;;;;;;;18.40;16.42;;;17.90;91.10;;;;;;6338013;22;19994;-79
2023/05/09 02:52:07;;;;;;;21.42;16.45;;;17.90;90.90;;;;;;6337636;22;20003;-79
2023/05/09 02:54:33;;;;;;;20.30;16.63;;;17.90;90.90;;;;;;6338097;22;20497;-78
2023/05/09 02:56:59;;;;;;;17.65;15.45;;;17.90;91.00;;;;;;6338159;22;20007;-78
2023/05/09 02:59:25;;;;;;;20.02;15.60;;;17.90;91.00;;;;;;6337876;22;20006;-78
2023/05/09 03:01:51;;;;;;;19.98;15.38;;;17.90;91.00;;;;;;6337542;22;20348;-78
2023/05/09 03:04:17;;;;;;;20.75;16.02;;;17.80;91.00;;;;;;6339943;22;19995;-78
2023/05/09 03:06:43;;;;;;;20.45;16.08;;;17.80;91.10;;;;;;6338122;22;19999;-79
2023/05/09 03:09:09;;;;;;;18.10;15.10;;;17.80;91.20;;;;;;6338418;22;20408;-78
2023/05/09 03:11:37;;;;;;;20.48;15.90;;;17.80;91.10;;;;;;6336301;22;20006;-79
2023/05/09 03:14:04;;;;;;;23.30;16.27;;;17.80;91.20;;;;;;6338063;22;20026;-78
2023/05/09 03:16:30;;;;;;;21.98;16.92;;;17.70;91.20;;;;;;6337736;22;20435;-78
2023/05/09 03:18:56;;;;;;;18.77;16.52;;;17.60;91.20;;;;;;6337666;22;20442;-79
2023/05/09 03:21:22;;;;;;;22.88;17.52;;;17.60;91.30;;;;;;6337826;22;20066;-79
2023/05/09 03:23:47;;;;;;;24.88;16.75;;;17.70;91.40;;;;;;6337606;22;20045;-79
2023/05/09 03:26:13;;;;;;;20.45;16.70;;;17.70;91.30;;;;;;6337814;22;21056;-78
2023/05/09 03:28:39;;;;;;;19.70;15.57;;;17.70;91.30;;;;;;6337746;22;20061;-78
2023/05/09 03:31:05;;;;;;;22.00;16.30;;;17.70;91.30;;;;;;6337730;22;20003;-79
2023/05/09 03:33:31;;;;;;;20.20;16.33;;;17.70;91.20;;;;;;6337687;22;20956;-78
2023/05/09 03:35:56;;;;;;;20.10;16.13;;;17.70;91.20;;;;;;6337763;22;20003;-79
2023/05/09 03:38:23;;;;;;;22.33;16.10;;;17.70;91.20;;;;;;6337273;22;20002;-79
2023/05/09 03:40:50;;;;;;;21.60;15.15;;;17.60;91.30;;;;;;6337338;22;20019;-79
2023/05/09 03:43:16;;;;;;;17.70;14.48;;;17.60;91.20;;;;;;6338149;22;20014;-78
2023/05/09 03:45:42;;;;;;;22.33;14.52;;;17.60;91.40;;;;;;6337624;22;19999;-78
2023/05/09 03:48:08;;;;;;;18.05;15.13;;;17.70;91.40;;;;;;6337832;22;19999;-78
2023/05/09 03:50:34;;;;;;;25.35;15.80;;;17.70;91.40;;;;;;6337648;22;20006;-78
2023/05/09 03:53:01;;;;;;;20.55;15.80;;;17.70;91.40;;;;;;6337544;22;20065;-78
2023/05/09 03:55:26;;;;;;;20.30;15.98;;;17.70;91.50;;;;;;6337709;22;20336;-78
2023/05/09 03:57:53;;;;;;;17.13;14.90;;;17.70;91.40;;;;;;6337721;22;20022;-79
2023/05/09 04:00:20;;;;;;;18.83;14.38;;;17.70;91.50;;;;;;6338115;22;20011;-78
2023/05/09 04:02:49;;;;;;;18.02;14.30;;;17.70;91.50;;;;;;6337184;22;20471;-78
2023/05/09 04:05:15;;;;;;;17.02;14.10;;;17.70;91.70;;;;;;6339438;22;20056;-79
2023/05/09 04:07:41;;;;;;;20.55;15.60;;;17.80;91.60;;;;;;6339436;22;20034;-79
2023/05/09 04:10:08;;;;;;;19.25;14.60;;;17.80;91.60;;;;;;6339570;22;20003;-79
2023/05/09 04:12:33;;;;;;;20.38;16.65;;;17.80;91.50;;;;;;6338242;22;20158;-79
2023/05/09 04:14:59;;;;;;;17.58;14.57;;;17.80;91.50;;;;;;6340132;22;20010;-79
2023/05/09 04:17:25;;;;;;;22.35;14.65;;;17.80;91.60;;;;;;6339795;22;20007;-79
2023/05/09 04:19:51;;;;;;;25.02;17.70;;;17.80;91.70;;;;;;6339641;22;20076;-78
2023/05/09 04:22:17;;;;;;;21.77;15.57;;;17.80;91.70;;;;;;6339630;22;19995;-79
2023/05/09 04:24:43;;;;;;;20.30;14.27;;;17.80;91.60;;;;;;6339335;22;20010;-78
2023/05/09 04:27:09;;;;;;;21.02;14.80;;;17.80;91.60;;;;;;6339651;22;20140;-78
2023/05/09 04:29:35;;;;;;;19.70;15.38;;;17.80;91.60;;;;;;6339440;22;20007;-79
2023/05/09 04:32:01;;;;;;;24.90;15.40;;;17.80;91.60;;;;;;6339206;22;19995;-78
2023/05/09 04:34:28;;;;;;;20.30;15.02;;;17.80;91.70;;;;;;6339596;22;19999;-80
2023/05/09 04:36:54;;;;;;;20.92;16.13;;;17.90;91.80;;;;;;6339669;22;20042;-79
2023/05/09 04:39:20;;;;;;;20.08;15.82;;;17.90;91.70;;;;;;6340079;22;20010;-78
2023/05/09 04:41:46;;;;;;;21.90;17.00;;;18.00;91.70;;;;;;6339339;22;20026;-80
2023/05/09 04:44:15;;;;;;;19.05;14.98;;;18.00;91.60;;;;;;6339642;22;20462;-79
2023/05/09 04:46:42;;;;;;;22.02;15.75;;;18.00;91.70;;;;;;6339757;22;20007;-79
2023/05/09 04:49:08;;;;;;;19.75;14.85;;;18.00;91.60;;;;;;6339377;22;20002;-78
2023/05/09 04:51:33;;;;;;;20.70;15.65;;;18.00;91.50;;;;;;6339127;22;20013;-79
2023/05/09 04:53:59;;;;;;;20.17;15.50;;;18.00;91.50;;;;;;6338918;22;20364;-80
2023/05/09 04:56:25;;;;;;;24.40;16.60;;;18.00;91.50;;;;;;6339186;22;20332;-78
2023/05/09 04:58:51;;;;;;;19.90;15.52;;;18.10;91.50;;;;;;6338743;22;20011;-79
2023/05/09 23:01:41;;;;;;;9.25;4.90;;;20.90;75.70;;;;;;6331023;22;21223;-76
2023/05/09 23:04:06;;;;;;;9.50;5.35;;;20.90;75.10;;;;;;6245102;23;20017;-74
2023/05/09 23:06:32;;;;;;;6.72;4.45;;;20.90;75.30;;;;;;6245001;23;20026;-74
2023/05/09 23:08:58;;;;;;;7.97;4.32;;;20.90;75.40;;;;;;6244726;23;20083;-74
2023/05/09 23:11:24;;;;;;;7.63;4.57;;;20.90;75.70;;;;;;6245489;23;20011;-75
2023/05/09 23:13:50;;;;;;;10.98;5.30;;;20.90;75.60;;;;;;6245307;23;20003;-74
2023/05/09 23:16:15;;;;;;;6.50;4.25;;;20.90;75.50;;;;;;6245128;23;20004;-74
2023/05/09 23:18:41;;;;;;;10.07;4.90;;;20.90;75.50;;;;;;6244923;23;20016;-74
2023/05/09 23:21:07;;;;;;;7.80;4.72;;;20.80;75.30;;;;;;6245124;23;20019;-75
2023/05/09 23:23:33;;;;;;;11.05;5.45;;;20.80;75.60;;;;;;6245122;22;20067;-74
2023/05/09 23:25:58;;;;;;;8.13;5.32;;;20.90;75.50;;;;;;6245111;23;20008;-73
2023/05/09 23:28:24;;;;;;;9.82;5.70;;;20.80;75.50;;;;;;6243194;23;20502;-74
2023/05/09 23:30:51;;;;;;;10.43;6.00;;;20.80;75.40;;;;;;6244873;23;20000;-74
2023/05/09 23:33:16;;;;;;;9.80;6.55;;;20.90;75.20;;;;;;6244813;22;20055;-73
2023/05/09 23:35:42;;;;;;;8.68;6.18;;;20.80;75.00;;;;;;6245334;23;20035;-74
2023/05/09 23:38:08;;;;;;;8.23;6.45;;;20.90;74.90;;;;;;6244904;23;19997;-74
2023/05/09 23:40:34;;;;;;;8.73;6.28;;;20.80;74.30;;;;;;6244937;23;20012;-74
2023/05/09 23:42:59;;;;;;;10.82;6.47;;;20.80;74.20;;;;;;6217978;23;20079;-74
2023/05/09 23:45:25;;;;;;;13.43;6.45;;;20.80;74.10;;;;;;6244954;23;20047;-74
2023/05/09 23:47:51;;;;;;;11.02;6.15;;;20.80;73.60;;;;;;6244819;22;20099;-75
2023/05/09 23:50:17;;;;;;;9.35;6.57;;;20.80;73.40;;;;;;6245070;23;20314;-74
2023/05/09 23:52:42;;;;;;;9.93;6.05;;;20.80;73.20;;;;;;6244706;23;20420;-74
2023/05/09 23:55:08;;;;;;;9.80;6.28;;;20.80;73.10;;;;;;6244561;23;20098;-75
2023/05/09 23:57:34;;;;;;;8.95;5.47;;;20.80;73.00;;;;;;6242485;23;20002;-75
